createdAt,value
2022-12-31T00:00:38.699Z,9.53
2022-12-31T00:01:38.561Z,9.50
2022-12-31T00:02:38.755Z,9.52
2022-12-31T00:03:38.597Z,9.49
2022-12-31T00:04:38.509Z,9.49
2022-12-31T00:05:38.516Z,9.50
2022-12-31T00:06:38.529Z,9.52
2022-12-31T00:08:09.136Z,9.59
2022-12-31T00:09:10.138Z,9.63
2022-12-31T00:10:10.122Z,9.62
2022-12-31T00:11:10.103Z,9.62
2022-12-31T00:12:10.111Z,9.60
2022-12-31T00:13:10.095Z,9.58
2022-12-31T00:14:10.077Z,9.55
2022-12-31T00:15:10.071Z,9.55
2022-12-31T00:16:12.517Z,9.55
2022-12-31T00:17:10.117Z,9.55
2022-12-31T00:18:10.039Z,9.52
2022-12-31T00:19:10.034Z,9.50
2022-12-31T00:20:10.020Z,9.50
2022-12-31T00:21:10.007Z,9.50
2022-12-31T00:22:10.020Z,9.50
2022-12-31T00:23:09.983Z,9.49
2022-12-31T00:24:09.974Z,9.49
2022-12-31T00:25:09.961Z,9.48
2022-12-31T00:26:09.943Z,9.48
2022-12-31T00:27:09.953Z,9.45
2022-12-31T00:28:09.926Z,9.50
2022-12-31T00:29:09.920Z,9.52
2022-12-31T00:30:09.903Z,9.52
2022-12-31T00:31:09.920Z,9.53
2022-12-31T00:32:09.893Z,9.53
2022-12-31T00:33:09.909Z,9.52
2022-12-31T00:34:09.877Z,9.52
2022-12-31T00:35:09.869Z,9.58
2022-12-31T00:36:09.833Z,9.59
2022-12-31T00:37:09.846Z,9.58
2022-12-31T00:38:09.815Z,9.58
2022-12-31T00:39:09.808Z,9.62
2022-12-31T00:40:09.794Z,9.63
2022-12-31T00:41:09.784Z,9.62
2022-12-31T00:42:09.785Z,9.63
2022-12-31T00:43:09.762Z,9.67
2022-12-31T00:44:09.755Z,9.73
2022-12-31T00:45:09.748Z,9.70
2022-12-31T00:46:09.818Z,9.71
2022-12-31T00:47:09.747Z,9.70
2022-12-31T00:48:09.706Z,9.67
2022-12-31T00:49:09.708Z,9.70
2022-12-31T00:50:09.687Z,9.68
2022-12-31T00:51:09.681Z,9.68
2022-12-31T00:52:09.688Z,9.73
2022-12-31T00:53:09.655Z,9.74
2022-12-31T00:54:09.649Z,9.73
2022-12-31T00:55:09.623Z,9.74
2022-12-31T00:56:09.607Z,9.75
2022-12-31T00:57:09.632Z,9.80
2022-12-31T00:58:09.603Z,9.81
2022-12-31T00:59:09.588Z,9.81
2022-12-31T01:00:09.574Z,9.81
2022-12-31T01:01:09.703Z,9.78
2022-12-31T01:02:09.739Z,9.77
2022-12-31T01:03:09.611Z,9.77
2022-12-31T01:04:09.527Z,9.77
2022-12-31T01:05:09.532Z,9.73
2022-12-31T01:06:09.511Z,9.70
2022-12-31T01:07:09.516Z,9.68
2022-12-31T01:08:09.529Z,9.67
2022-12-31T01:09:09.492Z,9.68
2022-12-31T01:10:09.483Z,9.67
2022-12-31T01:11:09.456Z,9.68
2022-12-31T01:12:09.475Z,9.67
2022-12-31T01:13:09.447Z,9.68
2022-12-31T01:14:09.431Z,9.71
2022-12-31T01:15:09.430Z,9.70
2022-12-31T01:16:09.501Z,9.68
2022-12-31T01:17:09.430Z,9.67
2022-12-31T01:18:09.387Z,9.62
2022-12-31T01:19:09.369Z,9.63
2022-12-31T01:20:09.353Z,9.62
2022-12-31T01:21:09.350Z,9.63
2022-12-31T01:22:09.367Z,9.62
2022-12-31T01:23:09.328Z,9.63
2022-12-31T01:24:09.313Z,9.67
2022-12-31T01:25:09.301Z,9.70
2022-12-31T01:26:09.315Z,9.71
2022-12-31T01:27:09.312Z,9.73
2022-12-31T01:28:09.267Z,9.73
2022-12-31T01:29:09.254Z,9.70
2022-12-31T01:30:09.245Z,9.71
2022-12-31T01:31:09.329Z,9.68
2022-12-31T01:32:09.232Z,9.67
2022-12-31T01:33:09.215Z,9.63
2022-12-31T01:34:09.198Z,9.62
2022-12-31T01:35:09.214Z,9.63
2022-12-31T01:36:09.178Z,9.63
2022-12-31T01:37:09.186Z,9.63
2022-12-31T01:38:09.167Z,9.63
2022-12-31T01:39:09.192Z,9.67
2022-12-31T01:40:09.131Z,9.68
2022-12-31T01:41:09.135Z,9.70
2022-12-31T01:42:09.136Z,9.67
2022-12-31T01:43:09.112Z,9.68
2022-12-31T01:44:09.092Z,9.68
2022-12-31T01:45:09.100Z,9.70
2022-12-31T01:46:09.134Z,9.68
2022-12-31T01:47:09.086Z,9.67
2022-12-31T01:48:09.114Z,9.65
2022-12-31T01:49:09.047Z,9.63
2022-12-31T01:50:09.039Z,9.65
2022-12-31T01:51:09.051Z,9.65
2022-12-31T01:52:09.106Z,9.62
2022-12-31T01:53:09.002Z,9.60
2022-12-31T01:54:08.985Z,9.60
2022-12-31T01:55:08.999Z,9.60
2022-12-31T01:56:08.971Z,9.59
2022-12-31T01:57:08.970Z,9.62
2022-12-31T01:58:08.941Z,9.62
2022-12-31T01:59:08.937Z,9.62
2022-12-31T02:00:08.922Z,9.63
2022-12-31T02:01:08.987Z,9.68
2022-12-31T02:02:08.953Z,9.71
2022-12-31T02:03:08.963Z,9.74
2022-12-31T02:04:08.868Z,9.77
2022-12-31T02:05:08.862Z,9.81
2022-12-31T02:06:08.848Z,9.81
2022-12-31T02:07:08.898Z,9.83
2022-12-31T02:08:08.836Z,9.85
2022-12-31T02:09:08.823Z,9.89
2022-12-31T02:10:08.813Z,9.88
2022-12-31T02:11:08.795Z,9.85
2022-12-31T02:12:08.804Z,9.85
2022-12-31T02:13:08.787Z,9.86
2022-12-31T02:14:08.776Z,9.88
2022-12-31T02:15:08.763Z,9.88
2022-12-31T02:16:08.852Z,9.89
2022-12-31T02:17:08.752Z,9.86
2022-12-31T02:18:08.721Z,9.86
2022-12-31T02:19:08.719Z,9.83
2022-12-31T02:20:08.703Z,9.86
2022-12-31T02:21:08.693Z,9.83
2022-12-31T02:22:08.699Z,9.83
2022-12-31T02:23:08.674Z,9.83
2022-12-31T02:24:08.689Z,9.83
2022-12-31T02:25:08.658Z,9.83
2022-12-31T02:26:09.335Z,9.83
2022-12-31T02:27:08.650Z,9.83
2022-12-31T02:28:08.644Z,9.88
2022-12-31T02:29:08.612Z,9.88
2022-12-31T02:30:08.648Z,9.89
2022-12-31T02:31:08.618Z,9.88
2022-12-31T02:32:08.587Z,9.88
2022-12-31T02:33:08.569Z,9.86
2022-12-31T02:34:08.548Z,9.85
2022-12-31T02:35:08.553Z,9.85
2022-12-31T02:36:08.548Z,9.88
2022-12-31T02:37:08.540Z,9.85
2022-12-31T02:38:08.523Z,9.83
2022-12-31T02:39:08.538Z,9.83
2022-12-31T02:40:08.501Z,9.86
2022-12-31T02:41:08.484Z,9.85
2022-12-31T02:42:08.485Z,9.86
2022-12-31T02:43:08.455Z,9.89
2022-12-31T02:44:08.444Z,9.91
2022-12-31T02:45:08.447Z,9.93
2022-12-31T02:46:08.466Z,9.95
2022-12-31T02:47:08.477Z,9.95
2022-12-31T02:48:08.420Z,9.95
2022-12-31T02:49:08.397Z,9.93
2022-12-31T02:50:08.382Z,9.98
2022-12-31T02:51:08.374Z,9.98
2022-12-31T02:52:08.383Z,9.99
2022-12-31T02:53:08.367Z,10.01
2022-12-31T02:54:08.345Z,9.98
2022-12-31T02:55:08.338Z,9.99
2022-12-31T02:56:08.319Z,10.01
2022-12-31T02:57:08.316Z,9.98
2022-12-31T02:58:08.312Z,9.98
2022-12-31T02:59:08.293Z,10.06
2022-12-31T03:00:08.289Z,10.07
2022-12-31T03:01:08.367Z,10.07
2022-12-31T03:02:08.375Z,10.09
2022-12-31T03:03:08.312Z,10.09
2022-12-31T03:04:08.271Z,10.09
2022-12-31T03:05:08.222Z,10.11
2022-12-31T03:06:08.230Z,10.14
2022-12-31T03:07:08.216Z,10.17
2022-12-31T03:08:08.268Z,10.17
2022-12-31T03:09:08.187Z,10.14
2022-12-31T03:10:08.180Z,10.16
2022-12-31T03:11:08.164Z,10.18
2022-12-31T03:12:08.160Z,10.22
2022-12-31T03:13:08.262Z,10.24
2022-12-31T03:14:08.219Z,10.24
2022-12-31T03:15:08.128Z,10.20
2022-12-31T03:16:08.190Z,10.18
2022-12-31T03:17:08.100Z,10.18
2022-12-31T03:18:08.113Z,10.17
2022-12-31T03:19:08.101Z,10.24
2022-12-31T03:20:08.078Z,10.26
2022-12-31T03:21:08.066Z,10.28
2022-12-31T03:22:08.049Z,10.31
2022-12-31T03:23:08.083Z,10.32
2022-12-31T03:24:08.058Z,10.31
2022-12-31T03:25:08.009Z,10.34
2022-12-31T03:26:08.007Z,10.32
2022-12-31T03:27:07.987Z,10.36
2022-12-31T03:28:08.009Z,10.39
2022-12-31T03:29:08.007Z,10.39
2022-12-31T03:30:07.967Z,10.42
2022-12-31T03:31:08.061Z,10.43
2022-12-31T03:32:07.942Z,10.44
2022-12-31T03:33:07.966Z,10.44
2022-12-31T03:34:07.943Z,10.44
2022-12-31T03:35:07.989Z,10.44
2022-12-31T03:36:07.921Z,10.46
2022-12-31T03:37:07.879Z,10.46
2022-12-31T03:38:07.902Z,10.47
2022-12-31T03:39:07.877Z,10.47
2022-12-31T03:40:07.876Z,10.51
2022-12-31T03:41:07.853Z,10.52
2022-12-31T03:42:07.941Z,10.49
2022-12-31T03:43:07.871Z,10.49
2022-12-31T03:44:07.852Z,10.52
2022-12-31T03:45:07.807Z,10.52
2022-12-31T03:46:07.883Z,10.55
2022-12-31T03:47:07.783Z,10.49
2022-12-31T03:48:07.795Z,10.49
2022-12-31T03:49:07.756Z,10.52
2022-12-31T03:50:07.767Z,10.52
2022-12-31T03:51:07.774Z,10.54
2022-12-31T03:52:07.782Z,10.62
2022-12-31T03:53:07.735Z,10.68
2022-12-31T03:54:07.722Z,10.69
2022-12-31T03:55:07.738Z,10.75
2022-12-31T03:56:07.697Z,10.73
2022-12-31T03:57:07.681Z,10.70
2022-12-31T03:58:07.678Z,10.69
2022-12-31T03:59:07.679Z,10.69
2022-12-31T04:00:07.640Z,10.70
2022-12-31T04:01:07.734Z,10.72
2022-12-31T04:02:07.783Z,10.75
2022-12-31T04:03:07.696Z,10.75
2022-12-31T04:04:07.596Z,10.73
2022-12-31T04:05:07.606Z,10.73
2022-12-31T04:06:07.572Z,10.78
2022-12-31T04:07:07.578Z,10.76
2022-12-31T04:08:07.597Z,10.78
2022-12-31T04:09:07.555Z,10.76
2022-12-31T04:10:07.568Z,10.76
2022-12-31T04:11:07.540Z,10.73
2022-12-31T04:12:07.513Z,10.78
2022-12-31T04:13:07.534Z,10.78
2022-12-31T04:14:07.492Z,10.83
2022-12-31T04:15:07.497Z,10.84
2022-12-31T04:16:07.572Z,10.86
2022-12-31T04:17:07.507Z,10.86
2022-12-31T04:18:07.466Z,10.87
2022-12-31T04:19:07.444Z,10.93
2022-12-31T04:20:07.437Z,10.94
2022-12-31T04:21:07.421Z,10.95
2022-12-31T04:22:07.405Z,10.98
2022-12-31T04:23:07.425Z,10.98
2022-12-31T04:24:07.388Z,11.01
2022-12-31T04:25:07.419Z,11.02
2022-12-31T04:26:07.372Z,11.06
2022-12-31T04:27:08.122Z,11.06
2022-12-31T04:28:07.381Z,11.09
2022-12-31T04:29:07.342Z,11.08
2022-12-31T04:30:07.334Z,11.08
2022-12-31T04:31:07.321Z,11.06
2022-12-31T04:32:07.378Z,11.08
2022-12-31T04:33:07.318Z,11.08
2022-12-31T04:34:07.320Z,11.11
2022-12-31T04:35:07.289Z,11.09
2022-12-31T04:36:07.277Z,11.11
2022-12-31T04:37:07.269Z,11.12
2022-12-31T04:38:07.264Z,11.08
2022-12-31T04:39:07.245Z,11.11
2022-12-31T04:40:07.280Z,11.13
2022-12-31T04:41:07.229Z,11.17
2022-12-31T04:42:07.213Z,11.21
2022-12-31T04:43:07.219Z,11.23
2022-12-31T04:44:07.189Z,11.23
2022-12-31T04:45:07.187Z,11.19
2022-12-31T04:46:08.236Z,11.17
2022-12-31T04:47:07.165Z,11.16
2022-12-31T04:48:07.170Z,11.19
2022-12-31T04:49:07.150Z,11.21
2022-12-31T04:50:07.141Z,11.20
2022-12-31T04:51:07.147Z,11.23
2022-12-31T04:52:07.120Z,11.21
2022-12-31T04:53:07.132Z,11.21
2022-12-31T04:54:07.083Z,11.23
2022-12-31T04:55:07.077Z,11.21
2022-12-31T04:56:07.060Z,11.26
2022-12-31T04:57:07.070Z,11.30
2022-12-31T04:58:07.120Z,11.35
2022-12-31T04:59:07.041Z,11.38
2022-12-31T05:00:07.021Z,11.35
2022-12-31T05:01:07.239Z,11.33
2022-12-31T05:02:07.280Z,11.31
2022-12-31T05:03:07.088Z,11.28
2022-12-31T05:04:06.992Z,11.26
2022-12-31T05:05:06.979Z,11.24
2022-12-31T05:06:06.959Z,11.27
2022-12-31T05:07:06.995Z,11.31
2022-12-31T05:08:06.963Z,11.30
2022-12-31T05:09:06.939Z,11.33
2022-12-31T05:10:06.929Z,11.35
2022-12-31T05:11:06.912Z,11.33
2022-12-31T05:12:06.900Z,11.35
2022-12-31T05:13:06.919Z,11.31
2022-12-31T05:14:06.887Z,11.30
2022-12-31T05:15:06.884Z,11.27
2022-12-31T05:16:06.877Z,11.24
2022-12-31T05:17:06.856Z,11.26
2022-12-31T05:18:06.862Z,11.26
2022-12-31T05:19:06.924Z,11.26
2022-12-31T05:20:06.853Z,11.24
2022-12-31T05:21:06.834Z,11.21
2022-12-31T05:22:06.826Z,11.27
2022-12-31T05:23:06.827Z,11.26
2022-12-31T05:24:06.770Z,11.27
2022-12-31T05:25:06.770Z,11.23
2022-12-31T05:26:06.759Z,11.27
2022-12-31T05:27:06.747Z,11.28
2022-12-31T05:28:06.751Z,11.26
2022-12-31T05:29:06.728Z,11.27
2022-12-31T05:30:06.709Z,11.27
2022-12-31T05:31:06.744Z,11.26
2022-12-31T05:32:06.688Z,11.26
2022-12-31T05:33:06.703Z,11.23
2022-12-31T05:34:06.675Z,11.23
2022-12-31T05:35:06.665Z,11.20
2022-12-31T05:36:06.653Z,11.20
2022-12-31T05:37:06.659Z,11.21
2022-12-31T05:38:06.644Z,11.21
2022-12-31T05:39:06.639Z,11.20
2022-12-31T05:40:06.677Z,11.23
2022-12-31T05:41:06.617Z,11.23
2022-12-31T05:42:06.593Z,11.23
2022-12-31T05:43:06.619Z,11.28
2022-12-31T05:44:06.569Z,11.31
2022-12-31T05:45:06.567Z,11.35
2022-12-31T05:46:06.606Z,11.38
2022-12-31T05:47:06.544Z,11.42
2022-12-31T05:48:06.547Z,11.39
2022-12-31T05:49:06.573Z,11.41
2022-12-31T05:50:06.507Z,11.39
2022-12-31T05:51:06.519Z,11.35
2022-12-31T05:52:06.519Z,11.35
2022-12-31T05:53:06.510Z,11.36
2022-12-31T05:54:06.494Z,11.35
2022-12-31T05:55:06.477Z,11.33
2022-12-31T05:56:06.444Z,11.36
2022-12-31T05:57:06.442Z,11.31
2022-12-31T05:58:06.439Z,11.30
2022-12-31T05:59:06.453Z,11.31
2022-12-31T06:00:06.445Z,11.30
2022-12-31T06:01:06.475Z,11.33
2022-12-31T06:02:06.384Z,11.33
2022-12-31T06:03:06.556Z,11.31
2022-12-31T06:04:06.415Z,11.28
2022-12-31T06:05:06.351Z,11.26
2022-12-31T06:06:06.344Z,11.28
2022-12-31T06:07:06.350Z,11.31
2022-12-31T06:08:06.321Z,11.35
2022-12-31T06:09:06.338Z,11.35
2022-12-31T06:10:07.182Z,11.36
2022-12-31T06:11:06.293Z,11.36
2022-12-31T06:12:06.283Z,11.41
2022-12-31T06:13:06.289Z,11.39
2022-12-31T06:14:06.275Z,11.42
2022-12-31T06:15:06.256Z,11.42
2022-12-31T06:16:06.262Z,11.44
2022-12-31T06:17:06.227Z,11.41
2022-12-31T06:18:06.213Z,11.42
2022-12-31T06:19:06.229Z,11.44
2022-12-31T06:20:12.512Z,11.44
2022-12-31T06:21:06.203Z,11.48
2022-12-31T06:22:06.258Z,11.46
2022-12-31T06:23:06.170Z,11.49
2022-12-31T06:24:06.173Z,11.49
2022-12-31T06:25:06.165Z,11.48
2022-12-31T06:26:06.163Z,11.46
2022-12-31T06:27:06.127Z,11.45
2022-12-31T06:28:06.110Z,11.46
2022-12-31T06:29:06.123Z,11.46
2022-12-31T06:30:06.085Z,11.49
2022-12-31T06:31:06.173Z,11.51
2022-12-31T06:32:06.067Z,11.53
2022-12-31T06:33:06.070Z,11.57
2022-12-31T06:34:06.073Z,11.57
2022-12-31T06:35:06.053Z,11.57
2022-12-31T06:36:06.029Z,11.57
2022-12-31T06:37:06.038Z,11.56
2022-12-31T06:38:06.006Z,11.59
2022-12-31T06:39:06.025Z,11.59
2022-12-31T06:40:05.989Z,11.59
2022-12-31T06:41:05.988Z,11.59
2022-12-31T06:42:06.037Z,11.57
2022-12-31T06:43:05.963Z,11.54
2022-12-31T06:44:05.974Z,11.54
2022-12-31T06:45:05.955Z,11.56
2022-12-31T06:46:05.997Z,11.54
2022-12-31T06:47:05.914Z,11.60
2022-12-31T06:48:05.898Z,11.63
2022-12-31T06:49:05.924Z,11.64
2022-12-31T06:50:05.895Z,11.64
2022-12-31T06:51:05.880Z,11.69
2022-12-31T06:52:05.870Z,11.69
2022-12-31T06:53:05.865Z,11.72
2022-12-31T06:54:05.856Z,11.77
2022-12-31T06:55:05.842Z,11.77
2022-12-31T06:56:05.828Z,11.74
2022-12-31T06:57:05.810Z,11.77
2022-12-31T06:58:05.804Z,11.74
2022-12-31T06:59:05.825Z,11.72
2022-12-31T07:00:05.847Z,11.72
2022-12-31T07:01:05.790Z,11.70
2022-12-31T07:02:05.837Z,11.70
2022-12-31T07:03:05.826Z,11.69
2022-12-31T07:04:05.850Z,11.70
2022-12-31T07:05:05.746Z,11.70
2022-12-31T07:06:05.715Z,11.70
2022-12-31T07:07:05.715Z,11.70
2022-12-31T07:08:05.696Z,11.70
2022-12-31T07:09:05.719Z,11.74
2022-12-31T07:10:05.685Z,11.75
2022-12-31T07:11:05.677Z,11.75
2022-12-31T07:12:05.698Z,11.77
2022-12-31T07:13:05.658Z,11.75
2022-12-31T07:14:05.593Z,11.77
2022-12-31T07:15:05.586Z,11.79
2022-12-31T07:16:05.617Z,11.78
2022-12-31T07:17:05.554Z,11.77
2022-12-31T07:18:05.553Z,11.77
2022-12-31T07:19:05.550Z,11.77
2022-12-31T07:20:05.516Z,11.82
2022-12-31T07:21:05.506Z,11.82
2022-12-31T07:22:05.511Z,11.81
2022-12-31T07:23:05.492Z,11.81
2022-12-31T07:24:05.557Z,11.78
2022-12-31T07:25:05.465Z,11.75
2022-12-31T07:26:05.464Z,11.74
2022-12-31T07:27:05.452Z,11.74
2022-12-31T07:28:05.446Z,11.70
2022-12-31T07:29:05.429Z,11.72
2022-12-31T07:30:05.414Z,11.74
2022-12-31T07:31:05.491Z,11.72
2022-12-31T07:32:05.404Z,11.75
2022-12-31T07:33:05.390Z,11.75
2022-12-31T07:34:05.443Z,11.78
2022-12-31T07:35:05.349Z,11.79
2022-12-31T07:36:05.372Z,11.82
2022-12-31T07:37:05.329Z,11.79
2022-12-31T07:38:05.321Z,11.78
2022-12-31T07:39:05.329Z,11.79
2022-12-31T07:40:05.313Z,11.81
2022-12-31T07:41:09.467Z,11.81
2022-12-31T07:42:05.291Z,11.79
2022-12-31T07:43:05.265Z,11.77
2022-12-31T07:44:05.322Z,11.77
2022-12-31T07:45:05.243Z,11.81
2022-12-31T07:46:05.303Z,11.81
2022-12-31T07:47:05.224Z,11.79
2022-12-31T07:48:05.212Z,11.78
2022-12-31T07:49:05.242Z,11.78
2022-12-31T07:50:05.283Z,11.79
2022-12-31T07:51:05.187Z,11.78
2022-12-31T07:52:05.175Z,11.81
2022-12-31T07:53:05.191Z,11.84
2022-12-31T07:54:10.189Z,11.88
2022-12-31T07:55:05.138Z,11.88
2022-12-31T07:56:05.140Z,11.94
2022-12-31T07:57:05.126Z,11.93
2022-12-31T07:58:05.107Z,11.94
2022-12-31T07:59:05.109Z,11.94
2022-12-31T08:00:05.092Z,11.96
2022-12-31T08:01:05.174Z,11.94
2022-12-31T08:02:05.134Z,11.90
2022-12-31T08:03:05.057Z,11.85
2022-12-31T08:04:05.072Z,11.85
2022-12-31T08:05:05.041Z,11.87
2022-12-31T08:06:05.032Z,11.85
2022-12-31T08:07:05.004Z,11.88
2022-12-31T08:08:04.999Z,11.88
2022-12-31T08:09:05.049Z,11.88
2022-12-31T08:10:04.983Z,11.87
2022-12-31T08:11:04.965Z,11.88
2022-12-31T08:12:04.954Z,11.90
2022-12-31T08:13:04.943Z,11.88
2022-12-31T08:14:04.992Z,11.93
2022-12-31T08:15:04.922Z,11.88
2022-12-31T08:16:04.952Z,11.87
2022-12-31T08:17:04.894Z,11.85
2022-12-31T08:18:04.889Z,11.82
2022-12-31T08:19:04.882Z,11.81
2022-12-31T08:20:04.860Z,11.81
2022-12-31T08:21:04.854Z,11.81
2022-12-31T08:22:04.869Z,11.82
2022-12-31T08:23:04.840Z,11.82
2022-12-31T08:24:04.855Z,11.81
2022-12-31T08:25:04.809Z,11.77
2022-12-31T08:26:04.901Z,11.77
2022-12-31T08:27:04.782Z,11.77
2022-12-31T08:28:04.780Z,11.78
2022-12-31T08:29:04.824Z,11.79
2022-12-31T08:30:04.765Z,11.79
2022-12-31T08:31:04.756Z,11.81
2022-12-31T08:32:04.739Z,11.78
2022-12-31T08:33:04.721Z,11.78
2022-12-31T08:34:06.192Z,11.78
2022-12-31T08:35:04.716Z,11.78
2022-12-31T08:36:04.695Z,11.79
2022-12-31T08:37:04.680Z,11.82
2022-12-31T08:38:04.671Z,11.87
2022-12-31T08:39:04.669Z,11.88
2022-12-31T08:40:04.650Z,11.88
2022-12-31T08:41:04.640Z,11.88
2022-12-31T08:42:04.624Z,11.88
2022-12-31T08:43:04.617Z,11.96
2022-12-31T08:44:04.702Z,12.00
2022-12-31T08:45:04.582Z,12.03
2022-12-31T08:46:04.697Z,12.07
2022-12-31T08:47:04.611Z,12.08
2022-12-31T08:48:04.569Z,12.11
2022-12-31T08:49:04.567Z,12.08
2022-12-31T08:50:04.532Z,12.08
2022-12-31T08:51:04.531Z,12.13
2022-12-31T08:52:04.515Z,12.16
2022-12-31T08:53:04.513Z,12.16
2022-12-31T08:54:04.580Z,12.19
2022-12-31T08:55:04.471Z,12.18
2022-12-31T08:56:04.464Z,12.16
2022-12-31T08:57:04.452Z,12.13
2022-12-31T08:58:04.444Z,12.12
2022-12-31T08:59:04.438Z,12.12
2022-12-31T09:00:04.452Z,12.15
2022-12-31T09:01:04.509Z,12.13
2022-12-31T09:02:04.688Z,12.15
2022-12-31T09:03:04.395Z,12.12
2022-12-31T09:04:04.471Z,12.13
2022-12-31T09:05:04.372Z,12.15
2022-12-31T09:06:04.351Z,12.16
2022-12-31T09:07:04.345Z,12.16
2022-12-31T09:08:04.339Z,12.12
2022-12-31T09:09:04.318Z,12.13
2022-12-31T09:10:04.345Z,12.13
2022-12-31T09:11:04.315Z,12.15
2022-12-31T09:12:04.317Z,12.16
2022-12-31T09:13:04.307Z,12.16
2022-12-31T09:14:04.262Z,12.18
2022-12-31T09:15:04.259Z,12.19
2022-12-31T09:16:04.303Z,12.21
2022-12-31T09:17:04.246Z,12.22
2022-12-31T09:18:04.236Z,12.19
2022-12-31T09:19:04.209Z,12.18
2022-12-31T09:20:04.231Z,12.22
2022-12-31T09:21:04.202Z,12.22
2022-12-31T09:22:04.220Z,12.23
2022-12-31T09:23:04.163Z,12.21
2022-12-31T09:24:09.208Z,12.21
2022-12-31T09:25:04.170Z,12.22
2022-12-31T09:26:04.139Z,12.22
2022-12-31T09:27:04.116Z,12.22
2022-12-31T09:28:04.112Z,12.22
2022-12-31T09:29:04.094Z,12.25
2022-12-31T09:30:04.147Z,12.26
2022-12-31T09:31:04.081Z,12.26
2022-12-31T09:32:04.112Z,12.22
2022-12-31T09:33:04.054Z,12.23
2022-12-31T09:34:04.096Z,12.21
2022-12-31T09:35:04.065Z,12.15
2022-12-31T09:36:04.022Z,12.18
2022-12-31T09:37:04.012Z,12.18
2022-12-31T09:38:09.510Z,12.18
2022-12-31T09:39:03.995Z,12.22
2022-12-31T09:40:03.994Z,12.23
2022-12-31T09:41:03.975Z,12.26
2022-12-31T09:42:03.969Z,12.25
2022-12-31T09:43:03.938Z,12.25
2022-12-31T09:44:03.951Z,12.25
2022-12-31T09:45:03.963Z,12.31
2022-12-31T09:46:03.981Z,12.34
2022-12-31T09:47:03.912Z,12.37
2022-12-31T09:48:03.901Z,12.40
2022-12-31T09:49:03.904Z,12.41
2022-12-31T09:50:03.888Z,12.41
2022-12-31T09:51:03.853Z,12.46
2022-12-31T09:52:03.853Z,12.48
2022-12-31T09:53:03.831Z,12.51
2022-12-31T09:54:03.832Z,12.51
2022-12-31T09:55:03.830Z,12.51
2022-12-31T09:56:03.802Z,12.48
2022-12-31T09:57:03.793Z,12.44
2022-12-31T09:58:03.775Z,12.43
2022-12-31T09:59:03.784Z,12.43
2022-12-31T10:00:03.768Z,12.44
2022-12-31T10:01:03.911Z,12.44
2022-12-31T10:02:04.005Z,12.44
2022-12-31T10:03:03.759Z,12.49
2022-12-31T10:04:03.716Z,12.51
2022-12-31T10:05:03.723Z,12.52
2022-12-31T10:06:03.689Z,12.52
2022-12-31T10:07:03.688Z,12.52
2022-12-31T10:08:03.668Z,12.54
2022-12-31T10:09:03.658Z,12.55
2022-12-31T10:10:03.658Z,12.58
2022-12-31T10:11:03.661Z,12.58
2022-12-31T10:12:03.637Z,12.58
2022-12-31T10:13:03.616Z,12.59
2022-12-31T10:14:03.597Z,12.58
2022-12-31T10:15:03.602Z,12.56
2022-12-31T10:16:03.606Z,12.58
2022-12-31T10:17:03.626Z,12.59
2022-12-31T10:18:03.547Z,12.59
2022-12-31T10:19:03.536Z,12.56
2022-12-31T10:20:03.543Z,12.59
2022-12-31T10:21:03.553Z,12.66
2022-12-31T10:22:03.536Z,12.66
2022-12-31T10:23:03.485Z,12.66
2022-12-31T10:24:03.483Z,12.63
2022-12-31T10:25:03.489Z,12.61
2022-12-31T10:26:03.460Z,12.61
2022-12-31T10:27:03.445Z,12.58
2022-12-31T10:28:03.441Z,12.59
2022-12-31T10:29:03.421Z,12.59
2022-12-31T10:30:03.463Z,12.59
2022-12-31T10:31:03.483Z,12.61
2022-12-31T10:32:03.392Z,12.62
2022-12-31T10:33:03.421Z,12.58
2022-12-31T10:34:03.400Z,12.55
2022-12-31T10:35:03.376Z,12.54
2022-12-31T10:36:03.359Z,12.52
2022-12-31T10:37:03.342Z,12.51
2022-12-31T10:38:03.341Z,12.48
2022-12-31T10:39:07.501Z,12.43
2022-12-31T10:40:03.347Z,12.41
2022-12-31T10:41:03.287Z,12.44
2022-12-31T10:42:03.277Z,12.43
2022-12-31T10:43:03.262Z,12.37
2022-12-31T10:44:03.256Z,12.36
2022-12-31T10:45:03.260Z,12.34
2022-12-31T10:46:03.301Z,12.33
2022-12-31T10:47:03.232Z,12.34
2022-12-31T10:48:03.214Z,12.36
2022-12-31T10:49:03.199Z,12.37
2022-12-31T10:50:03.210Z,12.36
2022-12-31T10:51:03.177Z,12.36
2022-12-31T10:52:03.171Z,12.34
2022-12-31T10:53:03.152Z,12.31
2022-12-31T10:54:03.141Z,12.33
2022-12-31T10:55:03.153Z,12.34
2022-12-31T10:56:03.120Z,12.37
2022-12-31T10:57:03.267Z,12.37
2022-12-31T10:58:04.468Z,12.37
2022-12-31T10:59:03.088Z,12.37
2022-12-31T11:00:03.153Z,12.38
2022-12-31T11:01:03.133Z,12.37
2022-12-31T11:02:03.197Z,12.36
2022-12-31T11:03:03.178Z,12.38
2022-12-31T11:04:03.034Z,12.43
2022-12-31T11:05:03.035Z,12.48
2022-12-31T11:06:03.009Z,12.49
2022-12-31T11:07:03.004Z,12.48
2022-12-31T11:08:02.989Z,12.46
2022-12-31T11:09:02.974Z,12.49
2022-12-31T11:10:02.990Z,12.54
2022-12-31T11:11:02.952Z,12.55
2022-12-31T11:12:02.939Z,12.56
2022-12-31T11:13:02.925Z,12.59
2022-12-31T11:14:02.951Z,12.58
2022-12-31T11:15:02.991Z,12.59
2022-12-31T11:16:03.073Z,12.62
2022-12-31T11:17:02.884Z,12.62
2022-12-31T11:18:02.882Z,12.63
2022-12-31T11:19:02.865Z,12.63
2022-12-31T11:20:02.882Z,12.59
2022-12-31T11:21:02.835Z,12.58
2022-12-31T11:22:02.881Z,12.58
2022-12-31T11:23:02.807Z,12.55
2022-12-31T11:24:02.816Z,12.52
2022-12-31T11:25:02.819Z,12.52
2022-12-31T11:26:02.886Z,12.49
2022-12-31T11:27:02.813Z,12.48
2022-12-31T11:28:02.823Z,12.48
2022-12-31T11:29:02.745Z,12.44
2022-12-31T11:30:02.797Z,12.41
2022-12-31T11:31:02.829Z,12.41
2022-12-31T11:32:02.744Z,12.46
2022-12-31T11:33:02.693Z,12.49
2022-12-31T11:34:02.684Z,12.49
2022-12-31T11:35:02.706Z,12.52
2022-12-31T11:36:02.671Z,12.51
2022-12-31T11:37:02.656Z,12.51
2022-12-31T11:38:02.658Z,12.54
2022-12-31T11:39:02.664Z,12.55
2022-12-31T11:40:02.670Z,12.56
2022-12-31T11:41:02.618Z,12.56
2022-12-31T11:42:02.595Z,12.56
2022-12-31T11:43:02.619Z,12.56
2022-12-31T11:44:02.586Z,12.58
2022-12-31T11:45:02.599Z,12.58
2022-12-31T11:46:02.582Z,12.59
2022-12-31T11:47:02.545Z,12.62
2022-12-31T11:48:29.817Z,12.63
2022-12-31T11:49:02.591Z,12.63
2022-12-31T11:50:02.526Z,12.61
2022-12-31T11:51:02.504Z,12.59
2022-12-31T11:52:02.490Z,12.59
2022-12-31T11:53:02.496Z,12.63
2022-12-31T11:54:02.499Z,12.66
2022-12-31T11:55:02.485Z,12.67
2022-12-31T11:56:02.447Z,12.67
2022-12-31T11:57:02.448Z,12.69
2022-12-31T11:58:02.448Z,12.66
2022-12-31T11:59:07.785Z,12.66
2022-12-31T12:00:02.533Z,12.63
2022-12-31T12:01:02.641Z,12.63
2022-12-31T12:02:02.423Z,12.67
2022-12-31T12:03:02.472Z,12.73
2022-12-31T12:04:02.446Z,12.76
2022-12-31T12:05:10.095Z,12.76
2022-12-31T12:06:02.331Z,12.74
2022-12-31T12:07:02.350Z,12.77
2022-12-31T12:08:02.304Z,12.80
2022-12-31T12:09:02.352Z,12.85
2022-12-31T12:10:02.313Z,12.89
2022-12-31T12:11:02.282Z,12.89
2022-12-31T12:12:02.262Z,12.88
2022-12-31T12:13:02.266Z,12.87
2022-12-31T12:14:02.256Z,12.87
2022-12-31T12:15:02.250Z,12.89
2022-12-31T12:16:02.309Z,12.91
2022-12-31T12:17:05.296Z,12.91
2022-12-31T12:18:02.217Z,12.92
2022-12-31T12:19:02.196Z,12.92
2022-12-31T12:20:02.187Z,12.91
2022-12-31T12:21:02.184Z,12.94
2022-12-31T12:22:02.776Z,12.95
2022-12-31T12:23:02.201Z,12.98
2022-12-31T12:24:02.124Z,13.03
2022-12-31T12:25:02.133Z,13.06
2022-12-31T12:26:02.171Z,13.07
2022-12-31T12:27:02.092Z,13.07
2022-12-31T12:28:02.079Z,13.03
2022-12-31T12:29:02.070Z,13.01
2022-12-31T12:30:02.092Z,13.03
2022-12-31T12:31:02.113Z,13.03
2022-12-31T12:32:02.036Z,13.04
2022-12-31T12:33:02.060Z,13.06
2022-12-31T12:34:02.012Z,13.06
2022-12-31T12:35:02.209Z,13.03
2022-12-31T12:36:01.988Z,12.99
2022-12-31T12:37:01.987Z,12.98
2022-12-31T12:38:01.963Z,12.98
2022-12-31T12:39:01.968Z,12.98
2022-12-31T12:40:01.974Z,12.96
2022-12-31T12:41:01.944Z,12.99
2022-12-31T12:42:01.915Z,12.99
2022-12-31T12:43:01.921Z,13.01
2022-12-31T12:44:01.900Z,13.01
2022-12-31T12:45:01.930Z,12.99
2022-12-31T12:46:01.875Z,13.04
2022-12-31T12:47:01.926Z,13.12
2022-12-31T12:48:01.853Z,13.14
2022-12-31T12:49:01.844Z,13.16
2022-12-31T12:50:01.941Z,13.12
2022-12-31T12:51:01.839Z,13.12
2022-12-31T12:52:01.816Z,13.14
2022-12-31T12:53:01.807Z,13.16
2022-12-31T12:54:01.793Z,13.12
2022-12-31T12:55:01.802Z,13.12
2022-12-31T12:56:01.768Z,13.09
2022-12-31T12:57:01.758Z,13.06
2022-12-31T12:58:01.737Z,13.01
2022-12-31T12:59:01.735Z,12.98